sensor_id;sensor_type;location;lat;lon;timestamp;P1;durP1;ratioP1;P2;durP2;ratioP2
74162;SDS011;62515;52.758;5.076;2022-09-12T00:00:14;34.72;;;13.57;;
74162;SDS011;62515;52.758;5.076;2022-09-12T00:02:41;50.35;;;15.70;;
74162;SDS011;62515;52.758;5.076;2022-09-12T00:05:08;49.42;;;15.32;;
74162;SDS011;62515;52.758;5.076;2022-09-12T00:07:35;50.47;;;15.77;;
74162;SDS011;62515;52.758;5.076;2022-09-12T00:10:02;38.53;;;14.07;;
74162;SDS011;62515;52.758;5.076;2022-09-12T00:12:30;41.55;;;14.20;;
74162;SDS011;62515;52.758;5.076;2022-09-12T00:14:57;44.20;;;13.77;;
74162;SDS011;62515;52.758;5.076;2022-09-12T00:17:26;42.38;;;14.95;;
74162;SDS011;62515;52.758;5.076;2022-09-12T00:19:52;50.65;;;15.88;;
74162;SDS011;62515;52.758;5.076;2022-09-12T00:22:19;43.50;;;14.35;;
74162;SDS011;62515;52.758;5.076;2022-09-12T00:24:46;43.80;;;13.65;;
74162;SDS011;62515;52.758;5.076;2022-09-12T00:27:13;45.30;;;14.52;;
74162;SDS011;62515;52.758;5.076;2022-09-12T00:29:40;55.13;;;15.38;;
74162;SDS011;62515;52.758;5.076;2022-09-12T00:32:07;53.63;;;15.95;;
74162;SDS011;62515;52.758;5.076;2022-09-12T00:34:36;52.60;;;15.75;;
74162;SDS011;62515;52.758;5.076;2022-09-12T00:37:02;52.95;;;15.18;;
74162;SDS011;62515;52.758;5.076;2022-09-12T00:39:29;52.83;;;16.70;;
74162;SDS011;62515;52.758;5.076;2022-09-12T00:41:56;50.03;;;16.48;;
74162;SDS011;62515;52.758;5.076;2022-09-12T00:47:24;37.40;;;14.35;;
74162;SDS011;62515;52.758;5.076;2022-09-12T00:49:59;42.97;;;14.30;;
74162;SDS011;62515;52.758;5.076;2022-09-12T00:52:32;40.20;;;14.38;;
74162;SDS011;62515;52.758;5.076;2022-09-12T00:55:05;39.28;;;13.73;;
74162;SDS011;62515;52.758;5.076;2022-09-12T00:57:37;41.40;;;14.43;;
74162;SDS011;62515;52.758;5.076;2022-09-12T01:00:09;40.60;;;14.93;;
74162;SDS011;62515;52.758;5.076;2022-09-12T01:02:41;40.85;;;14.60;;
74162;SDS011;62515;52.758;5.076;2022-09-12T01:05:11;32.15;;;13.85;;
74162;SDS011;62515;52.758;5.076;2022-09-12T01:07:39;36.13;;;13.30;;
74162;SDS011;62515;52.758;5.076;2022-09-12T01:10:07;35.15;;;14.73;;
74162;SDS011;62515;52.758;5.076;2022-09-12T01:12:36;39.83;;;14.50;;
74162;SDS011;62515;52.758;5.076;2022-09-12T01:15:05;29.17;;;14.27;;
74162;SDS011;62515;52.758;5.076;2022-09-12T01:17:38;35.28;;;14.15;;
74162;SDS011;62515;52.758;5.076;2022-09-12T01:23:36;35.90;;;15.70;;
74162;SDS011;62515;52.758;5.076;2022-09-12T01:26:34;45.75;;;17.20;;
74162;SDS011;62515;52.758;5.076;2022-09-12T01:29:29;42.33;;;15.90;;
74162;SDS011;62515;52.758;5.076;2022-09-12T01:32:09;40.28;;;16.80;;
74162;SDS011;62515;52.758;5.076;2022-09-12T01:34:44;49.92;;;18.33;;
74162;SDS011;62515;52.758;5.076;2022-09-12T01:37:19;68.13;;;23.30;;
74162;SDS011;62515;52.758;5.076;2022-09-12T01:39:54;69.43;;;22.77;;
74162;SDS011;62515;52.758;5.076;2022-09-12T01:42:30;71.43;;;24.92;;
74162;SDS011;62515;52.758;5.076;2022-09-12T01:45:02;68.05;;;23.55;;
74162;SDS011;62515;52.758;5.076;2022-09-12T01:47:38;70.07;;;24.92;;
74162;SDS011;62515;52.758;5.076;2022-09-12T01:50:07;75.82;;;25.85;;
74162;SDS011;62515;52.758;5.076;2022-09-12T01:52:41;92.07;;;30.23;;
74162;SDS011;62515;52.758;5.076;2022-09-12T01:55:14;93.82;;;28.98;;
74162;SDS011;62515;52.758;5.076;2022-09-12T01:57:45;83.35;;;27.48;;
74162;SDS011;62515;52.758;5.076;2022-09-12T02:00:18;92.38;;;29.13;;
74162;SDS011;62515;52.758;5.076;2022-09-12T02:02:48;84.68;;;29.17;;
74162;SDS011;62515;52.758;5.076;2022-09-12T02:05:19;90.18;;;29.75;;
74162;SDS011;62515;52.758;5.076;2022-09-12T02:07:51;86.45;;;30.00;;
74162;SDS011;62515;52.758;5.076;2022-09-12T02:10:23;90.95;;;31.40;;
74162;SDS011;62515;52.758;5.076;2022-09-12T02:13:00;92.13;;;30.38;;
74162;SDS011;62515;52.758;5.076;2022-09-12T02:15:33;89.10;;;30.48;;
74162;SDS011;62515;52.758;5.076;2022-09-12T02:18:06;93.13;;;30.92;;
74162;SDS011;62515;52.758;5.076;2022-09-12T02:20:37;85.10;;;29.83;;
74162;SDS011;62515;52.758;5.076;2022-09-12T02:23:15;80.72;;;29.17;;
74162;SDS011;62515;52.758;5.076;2022-09-12T02:25:46;79.40;;;30.20;;
74162;SDS011;62515;52.758;5.076;2022-09-12T02:28:17;85.63;;;30.00;;
74162;SDS011;62515;52.758;5.076;2022-09-12T02:30:49;81.32;;;29.45;;
74162;SDS011;62515;52.758;5.076;2022-09-12T02:33:28;79.38;;;29.67;;
74162;SDS011;62515;52.758;5.076;2022-09-12T02:36:01;69.97;;;26.13;;
74162;SDS011;62515;52.758;5.076;2022-09-12T02:38:36;67.30;;;26.23;;
74162;SDS011;62515;52.758;5.076;2022-09-12T02:43:38;54.90;;;23.17;;
74162;SDS011;62515;52.758;5.076;2022-09-12T02:46:06;54.28;;;24.25;;
74162;SDS011;62515;52.758;5.076;2022-09-12T02:48:39;58.20;;;24.33;;
74162;SDS011;62515;52.758;5.076;2022-09-12T02:51:09;64.05;;;26.70;;
74162;SDS011;62515;52.758;5.076;2022-09-12T02:53:36;69.97;;;26.85;;
74162;SDS011;62515;52.758;5.076;2022-09-12T02:56:04;74.13;;;27.88;;
74162;SDS011;62515;52.758;5.076;2022-09-12T02:58:36;76.85;;;27.92;;
74162;SDS011;62515;52.758;5.076;2022-09-12T03:01:06;84.03;;;31.05;;
74162;SDS011;62515;52.758;5.076;2022-09-12T03:03:48;79.07;;;28.17;;
74162;SDS011;62515;52.758;5.076;2022-09-12T03:06:26;77.15;;;27.52;;
74162;SDS011;62515;52.758;5.076;2022-09-12T03:09:00;94.88;;;30.90;;
74162;SDS011;62515;52.758;5.076;2022-09-12T03:11:36;98.90;;;30.60;;
74162;SDS011;62515;52.758;5.076;2022-09-12T03:14:26;83.60;;;28.73;;
74162;SDS011;62515;52.758;5.076;2022-09-12T03:17:04;76.40;;;29.25;;
74162;SDS011;62515;52.758;5.076;2022-09-12T03:19:40;80.90;;;28.25;;
74162;SDS011;62515;52.758;5.076;2022-09-12T03:22:19;85.93;;;29.90;;
74162;SDS011;62515;52.758;5.076;2022-09-12T03:24:50;92.03;;;30.85;;
74162;SDS011;62515;52.758;5.076;2022-09-12T03:27:26;75.88;;;28.00;;
74162;SDS011;62515;52.758;5.076;2022-09-12T03:29:58;87.55;;;29.33;;
74162;SDS011;62515;52.758;5.076;2022-09-12T03:32:38;86.32;;;30.02;;
74162;SDS011;62515;52.758;5.076;2022-09-12T03:35:08;73.38;;;27.08;;
74162;SDS011;62515;52.758;5.076;2022-09-12T03:37:35;82.95;;;28.33;;
74162;SDS011;62515;52.758;5.076;2022-09-12T03:40:02;80.30;;;28.63;;
74162;SDS011;62515;52.758;5.076;2022-09-12T03:42:29;82.15;;;29.10;;
74162;SDS011;62515;52.758;5.076;2022-09-12T03:44:56;83.85;;;28.83;;
74162;SDS011;62515;52.758;5.076;2022-09-12T03:47:23;76.50;;;28.50;;
74162;SDS011;62515;52.758;5.076;2022-09-12T03:49:50;70.55;;;28.90;;
74162;SDS011;62515;52.758;5.076;2022-09-12T03:52:19;68.78;;;25.88;;
74162;SDS011;62515;52.758;5.076;2022-09-12T03:54:46;68.75;;;25.92;;
74162;SDS011;62515;52.758;5.076;2022-09-12T03:57:12;66.75;;;24.85;;
74162;SDS011;62515;52.758;5.076;2022-09-12T03:59:39;63.33;;;25.15;;
74162;SDS011;62515;52.758;5.076;2022-09-12T04:02:06;70.95;;;25.90;;
74162;SDS011;62515;52.758;5.076;2022-09-12T04:04:35;72.15;;;27.17;;
74162;SDS011;62515;52.758;5.076;2022-09-12T04:07:01;70.25;;;25.17;;
74162;SDS011;62515;52.758;5.076;2022-09-12T04:09:30;72.50;;;25.90;;
74162;SDS011;62515;52.758;5.076;2022-09-12T04:11:57;80.22;;;27.55;;
74162;SDS011;62515;52.758;5.076;2022-09-12T04:14:23;80.68;;;26.30;;
74162;SDS011;62515;52.758;5.076;2022-09-12T04:16:50;78.57;;;27.27;;
74162;SDS011;62515;52.758;5.076;2022-09-12T04:19:17;78.65;;;26.92;;
74162;SDS011;62515;52.758;5.076;2022-09-12T04:21:44;99.18;;;29.83;;
74162;SDS011;62515;52.758;5.076;2022-09-12T04:24:10;91.30;;;30.80;;
74162;SDS011;62515;52.758;5.076;2022-09-12T04:26:39;98.55;;;29.23;;
74162;SDS011;62515;52.758;5.076;2022-09-12T04:29:05;81.40;;;27.90;;
74162;SDS011;62515;52.758;5.076;2022-09-12T04:31:32;83.22;;;28.42;;
74162;SDS011;62515;52.758;5.076;2022-09-12T04:33:59;65.28;;;24.60;;
74162;SDS011;62515;52.758;5.076;2022-09-12T04:36:27;62.78;;;24.35;;
74162;SDS011;62515;52.758;5.076;2022-09-12T04:38:54;63.45;;;24.60;;
74162;SDS011;62515;52.758;5.076;2022-09-12T04:41:22;61.22;;;24.05;;
74162;SDS011;62515;52.758;5.076;2022-09-12T04:46:20;57.15;;;22.95;;
74162;SDS011;62515;52.758;5.076;2022-09-12T04:48:47;52.45;;;21.55;;
74162;SDS011;62515;52.758;5.076;2022-09-12T04:51:22;40.88;;;19.52;;
74162;SDS011;62515;52.758;5.076;2022-09-12T04:53:54;47.53;;;20.23;;
74162;SDS011;62515;52.758;5.076;2022-09-12T04:56:23;50.08;;;21.30;;
74162;SDS011;62515;52.758;5.076;2022-09-12T04:58:55;55.58;;;22.55;;
74162;SDS011;62515;52.758;5.076;2022-09-12T05:01:22;55.75;;;21.90;;
74162;SDS011;62515;52.758;5.076;2022-09-12T05:03:49;54.75;;;22.20;;
74162;SDS011;62515;52.758;5.076;2022-09-12T05:06:17;63.42;;;23.85;;
74162;SDS011;62515;52.758;5.076;2022-09-12T05:08:46;67.05;;;25.27;;
74162;SDS011;62515;52.758;5.076;2022-09-12T05:11:14;69.25;;;25.23;;
74162;SDS011;62515;52.758;5.076;2022-09-12T05:13:46;63.47;;;25.73;;
74162;SDS011;62515;52.758;5.076;2022-09-12T05:16:15;63.80;;;24.95;;
74162;SDS011;62515;52.758;5.076;2022-09-12T05:18:44;67.82;;;25.60;;
74162;SDS011;62515;52.758;5.076;2022-09-12T05:21:14;75.20;;;28.05;;
74162;SDS011;62515;52.758;5.076;2022-09-12T05:23:42;72.25;;;25.95;;
74162;SDS011;62515;52.758;5.076;2022-09-12T05:26:11;60.45;;;25.38;;
74162;SDS011;62515;52.758;5.076;2022-09-12T05:28:39;61.08;;;24.38;;
74162;SDS011;62515;52.758;5.076;2022-09-12T05:31:07;57.13;;;24.17;;
74162;SDS011;62515;52.758;5.076;2022-09-12T05:33:39;51.05;;;22.25;;
74162;SDS011;62515;52.758;5.076;2022-09-12T05:36:09;51.72;;;22.33;;
74162;SDS011;62515;52.758;5.076;2022-09-12T05:38:37;48.40;;;23.02;;
74162;SDS011;62515;52.758;5.076;2022-09-12T05:41:04;55.20;;;23.38;;
74162;SDS011;62515;52.758;5.076;2022-09-12T05:43:33;54.40;;;22.73;;
74162;SDS011;62515;52.758;5.076;2022-09-12T05:46:00;56.15;;;22.17;;
74162;SDS011;62515;52.758;5.076;2022-09-12T05:48:27;57.60;;;24.35;;
74162;SDS011;62515;52.758;5.076;2022-09-12T05:51:00;57.10;;;23.85;;
74162;SDS011;62515;52.758;5.076;2022-09-12T05:53:28;67.60;;;25.33;;
74162;SDS011;62515;52.758;5.076;2022-09-12T05:56:06;66.88;;;24.55;;
74162;SDS011;62515;52.758;5.076;2022-09-12T05:58:34;61.15;;;25.27;;
74162;SDS011;62515;52.758;5.076;2022-09-12T06:01:03;63.80;;;24.60;;
74162;SDS011;62515;52.758;5.076;2022-09-12T06:03:31;51.40;;;22.42;;
74162;SDS011;62515;52.758;5.076;2022-09-12T06:06:01;56.05;;;23.25;;
74162;SDS011;62515;52.758;5.076;2022-09-12T06:08:29;57.78;;;23.80;;
74162;SDS011;62515;52.758;5.076;2022-09-12T06:10:58;57.22;;;23.90;;
74162;SDS011;62515;52.758;5.076;2022-09-12T06:13:27;52.65;;;22.52;;
74162;SDS011;62515;52.758;5.076;2022-09-12T06:16:01;49.00;;;21.75;;
74162;SDS011;62515;52.758;5.076;2022-09-12T06:18:29;51.20;;;21.77;;
74162;SDS011;62515;52.758;5.076;2022-09-12T06:20:56;54.60;;;23.50;;
74162;SDS011;62515;52.758;5.076;2022-09-12T06:23:24;59.75;;;23.50;;
74162;SDS011;62515;52.758;5.076;2022-09-12T06:25:52;61.20;;;24.55;;
74162;SDS011;62515;52.758;5.076;2022-09-12T06:28:19;66.10;;;24.98;;
74162;SDS011;62515;52.758;5.076;2022-09-12T06:30:46;54.85;;;23.48;;
74162;SDS011;62515;52.758;5.076;2022-09-12T06:33:14;60.08;;;24.33;;
74162;SDS011;62515;52.758;5.076;2022-09-12T06:35:41;53.40;;;24.35;;
74162;SDS011;62515;52.758;5.076;2022-09-12T06:38:08;46.60;;;21.88;;
74162;SDS011;62515;52.758;5.076;2022-09-12T06:40:40;49.90;;;23.33;;
74162;SDS011;62515;52.758;5.076;2022-09-12T06:43:10;47.35;;;22.17;;
74162;SDS011;62515;52.758;5.076;2022-09-12T06:45:37;48.70;;;23.05;;
74162;SDS011;62515;52.758;5.076;2022-09-12T06:48:05;49.40;;;22.25;;
74162;SDS011;62515;52.758;5.076;2022-09-12T06:50:31;39.50;;;21.52;;
74162;SDS011;62515;52.758;5.076;2022-09-12T06:52:58;36.72;;;19.70;;
74162;SDS011;62515;52.758;5.076;2022-09-12T06:55:25;44.10;;;20.90;;
74162;SDS011;62515;52.758;5.076;2022-09-12T06:57:54;35.42;;;18.63;;
74162;SDS011;62515;52.758;5.076;2022-09-12T07:00:21;33.38;;;18.38;;
74162;SDS011;62515;52.758;5.076;2022-09-12T07:02:52;35.05;;;18.25;;
74162;SDS011;62515;52.758;5.076;2022-09-12T07:05:19;33.85;;;17.15;;
74162;SDS011;62515;52.758;5.076;2022-09-12T07:07:46;31.60;;;16.63;;
74162;SDS011;62515;52.758;5.076;2022-09-12T07:10:13;34.42;;;15.73;;
74162;SDS011;62515;52.758;5.076;2022-09-12T07:12:45;31.90;;;16.23;;
74162;SDS011;62515;52.758;5.076;2022-09-12T07:15:14;31.30;;;16.67;;
74162;SDS011;62515;52.758;5.076;2022-09-12T07:17:41;30.55;;;16.25;;
74162;SDS011;62515;52.758;5.076;2022-09-12T07:20:08;34.10;;;15.70;;
74162;SDS011;62515;52.758;5.076;2022-09-12T07:22:35;26.15;;;14.40;;
74162;SDS011;62515;52.758;5.076;2022-09-12T07:25:03;26.33;;;14.55;;
74162;SDS011;62515;52.758;5.076;2022-09-12T07:27:30;25.13;;;15.50;;
74162;SDS011;62515;52.758;5.076;2022-09-12T07:29:57;29.42;;;14.73;;
74162;SDS011;62515;52.758;5.076;2022-09-12T07:32:25;31.05;;;14.98;;
74162;SDS011;62515;52.758;5.076;2022-09-12T07:34:52;26.83;;;14.25;;
74162;SDS011;62515;52.758;5.076;2022-09-12T07:37:19;22.02;;;13.02;;
74162;SDS011;62515;52.758;5.076;2022-09-12T07:39:46;23.42;;;13.38;;
74162;SDS011;62515;52.758;5.076;2022-09-12T07:42:13;27.35;;;14.05;;
74162;SDS011;62515;52.758;5.076;2022-09-12T07:44:40;23.08;;;13.27;;
74162;SDS011;62515;52.758;5.076;2022-09-12T07:47:07;27.08;;;13.65;;
74162;SDS011;62515;52.758;5.076;2022-09-12T07:49:35;23.58;;;13.48;;
74162;SDS011;62515;52.758;5.076;2022-09-12T07:52:01;27.60;;;15.43;;
74162;SDS011;62515;52.758;5.076;2022-09-12T07:54:28;27.25;;;13.95;;
74162;SDS011;62515;52.758;5.076;2022-09-12T07:56:55;25.95;;;12.63;;
74162;SDS011;62515;52.758;5.076;2022-09-12T07:59:22;24.08;;;12.98;;
74162;SDS011;62515;52.758;5.076;2022-09-12T08:02:09;22.08;;;12.63;;
74162;SDS011;62515;52.758;5.076;2022-09-12T08:04:44;20.27;;;11.27;;
74162;SDS011;62515;52.758;5.076;2022-09-12T08:07:12;21.23;;;11.65;;
74162;SDS011;62515;52.758;5.076;2022-09-12T08:09:39;20.85;;;11.45;;
74162;SDS011;62515;52.758;5.076;2022-09-12T08:12:06;22.88;;;11.93;;
74162;SDS011;62515;52.758;5.076;2022-09-12T08:14:33;22.00;;;12.45;;
74162;SDS011;62515;52.758;5.076;2022-09-12T08:17:00;21.00;;;11.95;;
74162;SDS011;62515;52.758;5.076;2022-09-12T08:19:26;23.75;;;12.40;;
74162;SDS011;62515;52.758;5.076;2022-09-12T08:21:54;26.08;;;12.13;;
74162;SDS011;62515;52.758;5.076;2022-09-12T08:24:21;20.75;;;12.32;;
74162;SDS011;62515;52.758;5.076;2022-09-12T08:26:48;19.80;;;12.32;;
74162;SDS011;62515;52.758;5.076;2022-09-12T08:29:15;23.98;;;12.15;;
74162;SDS011;62515;52.758;5.076;2022-09-12T08:31:42;19.10;;;11.60;;
74162;SDS011;62515;52.758;5.076;2022-09-12T08:34:08;17.08;;;9.65;;
74162;SDS011;62515;52.758;5.076;2022-09-12T08:36:35;16.80;;;9.95;;
74162;SDS011;62515;52.758;5.076;2022-09-12T08:39:04;16.83;;;10.07;;
74162;SDS011;62515;52.758;5.076;2022-09-12T08:41:34;19.20;;;10.73;;
74162;SDS011;62515;52.758;5.076;2022-09-12T08:44:09;19.38;;;10.95;;
74162;SDS011;62515;52.758;5.076;2022-09-12T08:46:47;17.13;;;10.05;;
74162;SDS011;62515;52.758;5.076;2022-09-12T08:49:24;18.13;;;11.80;;
74162;SDS011;62515;52.758;5.076;2022-09-12T08:51:55;22.10;;;10.77;;
74162;SDS011;62515;52.758;5.076;2022-09-12T08:54:27;17.42;;;11.05;;
74162;SDS011;62515;52.758;5.076;2022-09-12T08:56:57;20.73;;;11.50;;
74162;SDS011;62515;52.758;5.076;2022-09-12T08:59:29;20.77;;;11.48;;
74162;SDS011;62515;52.758;5.076;2022-09-12T09:02:01;17.20;;;11.45;;
74162;SDS011;62515;52.758;5.076;2022-09-12T09:04:33;17.75;;;11.10;;
74162;SDS011;62515;52.758;5.076;2022-09-12T09:07:14;20.33;;;11.52;;
74162;SDS011;62515;52.758;5.076;2022-09-12T09:10:02;15.88;;;10.60;;
74162;SDS011;62515;52.758;5.076;2022-09-12T09:12:43;22.00;;;10.60;;
74162;SDS011;62515;52.758;5.076;2022-09-12T09:15:21;18.42;;;11.00;;
74162;SDS011;62515;52.758;5.076;2022-09-12T09:18:01;16.92;;;10.40;;
74162;SDS011;62515;52.758;5.076;2022-09-12T09:20:34;19.13;;;10.13;;
74162;SDS011;62515;52.758;5.076;2022-09-12T09:23:09;17.52;;;11.18;;
74162;SDS011;62515;52.758;5.076;2022-09-12T09:25:43;20.70;;;11.65;;
74162;SDS011;62515;52.758;5.076;2022-09-12T09:28:17;15.82;;;9.90;;
74162;SDS011;62515;52.758;5.076;2022-09-12T09:30:47;18.10;;;10.23;;
74162;SDS011;62515;52.758;5.076;2022-09-12T09:33:16;18.48;;;11.25;;
74162;SDS011;62515;52.758;5.076;2022-09-12T09:35:47;15.32;;;10.02;;
74162;SDS011;62515;52.758;5.076;2022-09-12T09:38:22;17.00;;;10.65;;
74162;SDS011;62515;52.758;5.076;2022-09-12T09:40:59;17.17;;;11.13;;
74162;SDS011;62515;52.758;5.076;2022-09-12T09:43:38;18.67;;;10.88;;
74162;SDS011;62515;52.758;5.076;2022-09-12T09:46:05;17.77;;;11.30;;
74162;SDS011;62515;52.758;5.076;2022-09-12T09:48:33;19.27;;;10.82;;
74162;SDS011;62515;52.758;5.076;2022-09-12T09:51:02;16.77;;;9.35;;
74162;SDS011;62515;52.758;5.076;2022-09-12T09:53:34;17.13;;;9.88;;
74162;SDS011;62515;52.758;5.076;2022-09-12T09:56:06;17.13;;;11.20;;
74162;SDS011;62515;52.758;5.076;2022-09-12T09:58:37;14.80;;;8.13;;
74162;SDS011;62515;52.758;5.076;2022-09-12T10:01:10;9.95;;;6.95;;
74162;SDS011;62515;52.758;5.076;2022-09-12T10:03:39;9.70;;;7.07;;
74162;SDS011;62515;52.758;5.076;2022-09-12T10:06:21;11.48;;;7.85;;
74162;SDS011;62515;52.758;5.076;2022-09-12T10:09:03;12.68;;;7.20;;
74162;SDS011;62515;52.758;5.076;2022-09-12T10:11:37;11.98;;;7.03;;
74162;SDS011;62515;52.758;5.076;2022-09-12T10:14:25;11.82;;;7.88;;
74162;SDS011;62515;52.758;5.076;2022-09-12T10:17:24;8.13;;;5.65;;
74162;SDS011;62515;52.758;5.076;2022-09-12T10:19:59;13.95;;;9.35;;
74162;SDS011;62515;52.758;5.076;2022-09-12T10:22:46;15.88;;;9.05;;
74162;SDS011;62515;52.758;5.076;2022-09-12T10:25:14;13.85;;;7.78;;
74162;SDS011;62515;52.758;5.076;2022-09-12T10:27:50;11.82;;;6.72;;
74162;SDS011;62515;52.758;5.076;2022-09-12T10:30:19;11.25;;;7.38;;
74162;SDS011;62515;52.758;5.076;2022-09-12T10:32:50;12.02;;;7.82;;
74162;SDS011;62515;52.758;5.076;2022-09-12T10:35:17;11.70;;;7.15;;
74162;SDS011;62515;52.758;5.076;2022-09-12T10:37:51;11.57;;;7.32;;
74162;SDS011;62515;52.758;5.076;2022-09-12T10:40:21;10.27;;;7.18;;
74162;SDS011;62515;52.758;5.076;2022-09-12T10:42:53;11.35;;;6.75;;
74162;SDS011;62515;52.758;5.076;2022-09-12T10:45:25;11.02;;;7.55;;
74162;SDS011;62515;52.758;5.076;2022-09-12T10:47:55;11.32;;;7.78;;
74162;SDS011;62515;52.758;5.076;2022-09-12T10:50:25;10.82;;;7.80;;
74162;SDS011;62515;52.758;5.076;2022-09-12T10:53:11;9.77;;;7.15;;
74162;SDS011;62515;52.758;5.076;2022-09-12T10:55:40;10.48;;;7.85;;
74162;SDS011;62515;52.758;5.076;2022-09-12T10:58:22;10.27;;;6.75;;
74162;SDS011;62515;52.758;5.076;2022-09-12T11:01:10;15.38;;;8.20;;
74162;SDS011;62515;52.758;5.076;2022-09-12T11:04:00;12.98;;;8.73;;
74162;SDS011;62515;52.758;5.076;2022-09-12T11:06:45;13.13;;;8.38;;
74162;SDS011;62515;52.758;5.076;2022-09-12T11:09:18;11.15;;;8.50;;
74162;SDS011;62515;52.758;5.076;2022-09-12T11:14:33;11.43;;;7.55;;
74162;SDS011;62515;52.758;5.076;2022-09-12T11:17:10;12.73;;;7.35;;
74162;SDS011;62515;52.758;5.076;2022-09-12T11:19:51;12.48;;;7.95;;
74162;SDS011;62515;52.758;5.076;2022-09-12T11:22:35;11.90;;;7.25;;
74162;SDS011;62515;52.758;5.076;2022-09-12T11:25:27;10.95;;;8.07;;
74162;SDS011;62515;52.758;5.076;2022-09-12T11:28:03;14.02;;;8.43;;
74162;SDS011;62515;52.758;5.076;2022-09-12T11:30:42;11.20;;;7.85;;
74162;SDS011;62515;52.758;5.076;2022-09-12T11:33:25;13.55;;;7.63;;
74162;SDS011;62515;52.758;5.076;2022-09-12T11:36:00;15.35;;;9.35;;
74162;SDS011;62515;52.758;5.076;2022-09-12T11:38:36;13.70;;;9.38;;
74162;SDS011;62515;52.758;5.076;2022-09-12T11:41:14;12.70;;;9.07;;
74162;SDS011;62515;52.758;5.076;2022-09-12T11:43:47;12.43;;;8.90;;
74162;SDS011;62515;52.758;5.076;2022-09-12T11:46:20;13.32;;;9.02;;
74162;SDS011;62515;52.758;5.076;2022-09-12T11:48:53;14.60;;;10.13;;
74162;SDS011;62515;52.758;5.076;2022-09-12T11:51:24;13.15;;;8.52;;
74162;SDS011;62515;52.758;5.076;2022-09-12T11:53:57;12.52;;;8.77;;
74162;SDS011;62515;52.758;5.076;2022-09-12T11:56:28;16.23;;;9.57;;
74162;SDS011;62515;52.758;5.076;2022-09-12T11:58:57;16.77;;;10.57;;
74162;SDS011;62515;52.758;5.076;2022-09-12T12:01:33;14.57;;;10.43;;
74162;SDS011;62515;52.758;5.076;2022-09-12T12:04:14;15.57;;;10.85;;
74162;SDS011;62515;52.758;5.076;2022-09-12T12:06:46;14.98;;;9.18;;
74162;SDS011;62515;52.758;5.076;2022-09-12T12:09:18;15.02;;;9.93;;
74162;SDS011;62515;52.758;5.076;2022-09-12T12:11:46;13.30;;;9.65;;
74162;SDS011;62515;52.758;5.076;2022-09-12T12:14:18;15.77;;;9.45;;
74162;SDS011;62515;52.758;5.076;2022-09-12T12:16:49;15.88;;;8.65;;
74162;SDS011;62515;52.758;5.076;2022-09-12T12:19:32;13.57;;;9.10;;
74162;SDS011;62515;52.758;5.076;2022-09-12T12:22:05;13.85;;;9.93;;
74162;SDS011;62515;52.758;5.076;2022-09-12T12:24:51;14.40;;;9.90;;
74162;SDS011;62515;52.758;5.076;2022-09-12T12:27:23;14.00;;;9.20;;
74162;SDS011;62515;52.758;5.076;2022-09-12T12:36:28;13.80;;;9.00;;
74162;SDS011;62515;52.758;5.076;2022-09-12T12:38:56;12.80;;;9.07;;
74162;SDS011;62515;52.758;5.076;2022-09-12T12:41:43;12.07;;;7.88;;
74162;SDS011;62515;52.758;5.076;2022-09-12T12:47:17;12.57;;;8.73;;
74162;SDS011;62515;52.758;5.076;2022-09-12T12:49:52;12.32;;;9.00;;
74162;SDS011;62515;52.758;5.076;2022-09-12T12:52:23;12.48;;;8.68;;
74162;SDS011;62515;52.758;5.076;2022-09-12T12:54:54;11.43;;;7.70;;
74162;SDS011;62515;52.758;5.076;2022-09-12T12:57:25;10.48;;;7.60;;
74162;SDS011;62515;52.758;5.076;2022-09-12T13:00:24;13.88;;;8.25;;
74162;SDS011;62515;52.758;5.076;2022-09-12T13:02:56;11.52;;;7.40;;
74162;SDS011;62515;52.758;5.076;2022-09-12T13:05:27;9.80;;;6.80;;
74162;SDS011;62515;52.758;5.076;2022-09-12T13:07:56;14.35;;;8.23;;
74162;SDS011;62515;52.758;5.076;2022-09-12T13:10:28;11.77;;;7.68;;
74162;SDS011;62515;52.758;5.076;2022-09-12T13:12:56;11.00;;;7.53;;
74162;SDS011;62515;52.758;5.076;2022-09-12T13:15:40;13.63;;;7.00;;
74162;SDS011;62515;52.758;5.076;2022-09-12T13:18:15;12.98;;;6.78;;
74162;SDS011;62515;52.758;5.076;2022-09-12T13:20:49;10.27;;;6.28;;
74162;SDS011;62515;52.758;5.076;2022-09-12T13:23:23;8.60;;;6.03;;
74162;SDS011;62515;52.758;5.076;2022-09-12T13:25:52;11.52;;;8.05;;
74162;SDS011;62515;52.758;5.076;2022-09-12T13:28:20;9.25;;;6.60;;
74162;SDS011;62515;52.758;5.076;2022-09-12T13:30:47;9.50;;;6.80;;
74162;SDS011;62515;52.758;5.076;2022-09-12T13:33:23;9.40;;;6.28;;
74162;SDS011;62515;52.758;5.076;2022-09-12T13:39:14;7.18;;;5.68;;
74162;SDS011;62515;52.758;5.076;2022-09-12T13:41:52;13.55;;;6.53;;
74162;SDS011;62515;52.758;5.076;2022-09-12T13:44:30;8.52;;;5.80;;
74162;SDS011;62515;52.758;5.076;2022-09-12T13:47:03;10.77;;;6.45;;
74162;SDS011;62515;52.758;5.076;2022-09-12T13:49:31;9.65;;;6.85;;
74162;SDS011;62515;52.758;5.076;2022-09-12T13:52:03;9.70;;;6.15;;
74162;SDS011;62515;52.758;5.076;2022-09-12T13:54:32;11.23;;;7.47;;
74162;SDS011;62515;52.758;5.076;2022-09-12T13:57:03;9.25;;;6.05;;
74162;SDS011;62515;52.758;5.076;2022-09-12T13:59:36;8.38;;;6.35;;
74162;SDS011;62515;52.758;5.076;2022-09-12T14:02:14;8.48;;;4.95;;
74162;SDS011;62515;52.758;5.076;2022-09-12T14:04:45;9.13;;;5.43;;
74162;SDS011;62515;52.758;5.076;2022-09-12T14:07:33;6.55;;;5.38;;
74162;SDS011;62515;52.758;5.076;2022-09-12T14:10:06;9.90;;;5.47;;
74162;SDS011;62515;52.758;5.076;2022-09-12T14:12:34;7.30;;;4.82;;
74162;SDS011;62515;52.758;5.076;2022-09-12T14:15:03;6.80;;;4.20;;
74162;SDS011;62515;52.758;5.076;2022-09-12T14:17:35;5.43;;;3.80;;
74162;SDS011;62515;52.758;5.076;2022-09-12T14:20:05;4.82;;;3.20;;
74162;SDS011;62515;52.758;5.076;2022-09-12T14:22:36;6.18;;;3.65;;
74162;SDS011;62515;52.758;5.076;2022-09-12T14:25:04;5.00;;;3.85;;
74162;SDS011;62515;52.758;5.076;2022-09-12T14:27:37;4.57;;;3.53;;
74162;SDS011;62515;52.758;5.076;2022-09-12T14:33:00;7.03;;;4.13;;
74162;SDS011;62515;52.758;5.076;2022-09-12T14:35:28;8.40;;;4.60;;
74162;SDS011;62515;52.758;5.076;2022-09-12T14:38:06;6.70;;;3.65;;
74162;SDS011;62515;52.758;5.076;2022-09-12T14:40:41;5.25;;;3.45;;
74162;SDS011;62515;52.758;5.076;2022-09-12T14:43:16;4.82;;;3.63;;
74162;SDS011;62515;52.758;5.076;2022-09-12T14:45:56;6.50;;;3.78;;
74162;SDS011;62515;52.758;5.076;2022-09-12T14:48:26;5.82;;;4.28;;
74162;SDS011;62515;52.758;5.076;2022-09-12T14:50:56;4.90;;;3.63;;
74162;SDS011;62515;52.758;5.076;2022-09-12T14:53:29;6.78;;;4.00;;
74162;SDS011;62515;52.758;5.076;2022-09-12T14:56:03;9.85;;;3.80;;
74162;SDS011;62515;52.758;5.076;2022-09-12T14:58:33;6.43;;;4.00;;
74162;SDS011;62515;52.758;5.076;2022-09-12T15:01:00;5.78;;;3.90;;
74162;SDS011;62515;52.758;5.076;2022-09-12T15:03:48;6.30;;;4.25;;
74162;SDS011;62515;52.758;5.076;2022-09-12T15:06:19;6.38;;;4.10;;
74162;SDS011;62515;52.758;5.076;2022-09-12T15:08:49;7.10;;;3.55;;
74162;SDS011;62515;52.758;5.076;2022-09-12T15:11:19;6.15;;;3.70;;
74162;SDS011;62515;52.758;5.076;2022-09-12T15:13:46;5.50;;;3.00;;
74162;SDS011;62515;52.758;5.076;2022-09-12T15:16:13;3.55;;;2.88;;
74162;SDS011;62515;52.758;5.076;2022-09-12T15:18:41;5.75;;;2.20;;
74162;SDS011;62515;52.758;5.076;2022-09-12T15:21:09;4.40;;;2.47;;
74162;SDS011;62515;52.758;5.076;2022-09-12T15:23:40;4.72;;;2.10;;